createdAt,value
2022-09-13T03:27:57.155Z,10.77
2022-09-13T03:30:25.077Z,10.78
2022-09-13T03:33:01.475Z,10.77
2022-09-13T03:35:38.782Z,10.77
2022-09-13T03:38:11.312Z,10.72
2022-09-13T03:40:45.731Z,10.66
2022-09-13T03:43:19.317Z,10.66
2022-09-13T03:45:50.738Z,10.64
2022-09-13T03:48:20.307Z,10.52
2022-09-13T03:50:49.816Z,10.55
2022-09-13T03:53:22.031Z,10.58
2022-09-13T03:55:49.748Z,10.53
2022-09-13T03:58:21.186Z,10.42
2022-09-13T04:00:49.512Z,10.43
2022-09-13T04:03:17.400Z,10.36
2022-09-13T04:05:45.118Z,10.32
2022-09-13T04:08:12.932Z,10.27
2022-09-13T04:10:40.681Z,10.28
2022-09-13T04:13:08.829Z,10.28
2022-09-13T04:15:37.871Z,10.33
2022-09-13T04:18:05.788Z,10.35
2022-09-13T04:20:33.495Z,10.30
2022-09-13T04:23:01.196Z,10.35
2022-09-13T04:25:28.934Z,10.37
2022-09-13T04:27:58.124Z,10.38
2022-09-13T04:30:25.794Z,10.39
2022-09-13T04:32:56.308Z,10.36
2022-09-13T04:35:24.061Z,10.36
2022-09-13T04:37:51.736Z,10.38
2022-09-13T04:40:20.041Z,10.41
2022-09-13T04:42:47.745Z,10.37
2022-09-13T04:45:15.520Z,10.35
2022-09-13T04:47:43.547Z,10.33
2022-09-13T04:50:12.615Z,10.22
2022-09-13T04:52:40.387Z,10.17
2022-09-13T04:55:08.794Z,10.12
2022-09-13T04:57:36.442Z,10.10
2022-09-13T05:00:05.103Z,10.11
2022-09-13T05:02:32.967Z,10.11
2022-09-13T05:05:00.711Z,10.14
2022-09-13T05:07:29.736Z,10.17
2022-09-13T05:09:57.447Z,10.18
2022-09-13T05:12:25.216Z,10.23
2022-09-13T05:14:52.882Z,10.25
2022-09-13T05:17:21.668Z,10.33
2022-09-13T05:19:49.911Z,10.39
2022-09-13T05:22:17.578Z,10.42
2022-09-13T05:24:46.671Z,10.44
2022-09-13T05:27:14.386Z,10.52
2022-09-13T05:29:42.129Z,10.55
2022-09-13T05:32:10.041Z,10.56
2022-09-13T05:34:37.860Z,10.60
2022-09-13T05:37:05.671Z,10.60
2022-09-13T05:39:54.011Z,10.55
2022-09-13T05:42:22.473Z,10.52
2022-09-13T05:44:50.124Z,10.58
2022-09-13T05:47:17.848Z,10.63
2022-09-13T05:50:08.788Z,10.67
2022-09-13T05:52:33.199Z,10.69
2022-09-13T05:55:00.859Z,10.73
2022-09-13T05:57:29.926Z,10.74
2022-09-13T05:59:57.604Z,10.85
2022-09-13T06:02:25.450Z,10.93
2022-09-13T06:04:53.166Z,11.03
2022-09-13T06:07:20.838Z,11.13
2022-09-13T06:09:48.563Z,11.22
2022-09-13T06:12:16.255Z,11.30
2022-09-13T06:14:45.308Z,11.39
2022-09-13T06:17:13.016Z,11.50
2022-09-13T06:19:40.755Z,11.61
2022-09-13T06:22:08.583Z,11.73
2022-09-13T06:24:37.483Z,11.81
2022-09-13T06:27:05.830Z,11.92
2022-09-13T06:29:33.584Z,12.02
2022-09-13T06:32:02.964Z,12.12
2022-09-13T06:34:31.570Z,12.22
2022-09-13T06:36:59.491Z,12.36
2022-09-13T06:39:27.128Z,12.49
2022-09-13T06:41:54.795Z,12.66
2022-09-13T06:44:34.507Z,12.84
2022-09-13T06:47:03.624Z,12.99
2022-09-13T06:49:31.564Z,13.19
2022-09-13T06:51:59.301Z,13.39
2022-09-13T06:54:26.960Z,13.57
2022-09-13T06:56:54.679Z,13.77
2022-09-13T06:59:23.047Z,13.95
2022-09-13T07:01:50.935Z,14.16
2022-09-13T07:04:20.315Z,14.32
2022-09-13T07:06:49.773Z,14.49
2022-09-13T07:09:19.656Z,14.64
2022-09-13T07:11:48.435Z,14.75
2022-09-13T07:14:18.167Z,14.86
2022-09-13T07:16:46.959Z,14.97
2022-09-13T07:19:16.670Z,15.04
2022-09-13T07:21:46.141Z,15.08
2022-09-13T07:24:13.844Z,15.12
2022-09-13T07:26:44.540Z,15.17
2022-09-13T07:29:14.800Z,15.22
2022-09-13T07:31:45.199Z,15.27
2022-09-13T07:34:15.491Z,15.38
2022-09-13T07:36:46.755Z,15.40
2022-09-13T07:39:18.164Z,15.49
2022-09-13T07:41:48.311Z,15.51
2022-09-13T07:44:16.182Z,15.60
2022-09-13T07:46:44.445Z,15.67
2022-09-13T07:49:13.514Z,15.75
2022-09-13T07:51:43.164Z,15.85
2022-09-13T07:54:13.932Z,15.93
2022-09-13T07:56:42.262Z,16.02
2022-09-13T07:59:13.503Z,16.16
2022-09-13T08:01:43.128Z,16.32
2022-09-13T08:04:13.113Z,16.43
2022-09-13T08:06:43.291Z,16.58
2022-09-13T08:09:12.923Z,16.74
2022-09-13T08:11:43.994Z,16.92
2022-09-13T08:14:14.361Z,17.05
2022-09-13T08:16:42.159Z,17.23
2022-09-13T08:19:13.356Z,17.42
2022-09-13T08:21:43.501Z,17.59
2022-09-13T08:24:15.729Z,17.79
2022-09-13T08:26:43.658Z,17.96
2022-09-13T08:29:13.221Z,18.02
2022-09-13T08:31:40.993Z,18.04
2022-09-13T08:34:11.335Z,17.98
2022-09-13T08:36:40.982Z,18.02
2022-09-13T08:39:10.281Z,18.00
2022-09-13T08:42:02.359Z,18.02
2022-09-13T08:44:31.857Z,17.97
2022-09-13T08:47:14.012Z,18.07
2022-09-13T08:49:46.271Z,18.16
2022-09-13T08:52:29.372Z,18.26
2022-09-13T08:54:58.407Z,18.44
2022-09-13T08:57:37.363Z,18.63
2022-09-13T09:00:20.793Z,18.75
2022-09-13T09:03:18.795Z,18.94
2022-09-13T09:05:48.978Z,19.09
2022-09-13T09:08:28.863Z,19.27
2022-09-13T09:10:58.123Z,19.44
2022-09-13T09:13:31.350Z,19.65
2022-09-13T09:16:03.102Z,19.82
2022-09-13T09:18:34.210Z,19.85
2022-09-13T09:21:03.979Z,19.95
2022-09-13T09:23:36.627Z,20.11
2022-09-13T09:26:16.760Z,20.31
2022-09-13T09:28:48.394Z,20.47
2022-09-13T09:31:25.895Z,20.65
2022-09-13T09:34:04.796Z,20.97
2022-09-13T09:36:40.299Z,21.13
2022-09-13T09:39:12.813Z,21.17
2022-09-13T09:41:41.064Z,21.27
2022-09-13T09:44:18.698Z,21.41
2022-09-13T09:46:50.980Z,21.41
2022-09-13T09:49:39.871Z,21.55
2022-09-13T09:52:11.338Z,21.68
2022-09-13T09:58:02.514Z,22.09
2022-09-13T10:00:35.311Z,22.16
2022-09-13T10:03:06.487Z,22.49
2022-09-13T10:05:36.216Z,22.78
2022-09-13T10:08:06.800Z,23.12
2022-09-13T10:10:39.129Z,23.43
2022-09-13T10:13:14.010Z,23.65
2022-09-13T10:15:55.242Z,23.97
2022-09-13T10:18:43.363Z,24.06
2022-09-13T10:21:23.743Z,24.15
2022-09-13T10:23:52.315Z,24.41
2022-09-13T10:26:22.025Z,24.75
2022-09-13T10:28:57.843Z,24.62
2022-09-13T10:31:33.161Z,24.75
2022-09-13T10:34:03.786Z,24.64
2022-09-13T10:36:52.230Z,24.71
2022-09-13T10:39:22.532Z,24.90
2022-09-13T10:41:54.123Z,25.05
2022-09-13T10:44:41.957Z,25.47
2022-09-13T10:47:22.025Z,25.68
2022-09-13T10:49:52.948Z,25.82
2022-09-13T10:52:30.944Z,25.95
2022-09-13T10:55:36.277Z,26.30
2022-09-13T10:58:17.806Z,26.44
2022-09-13T11:01:07.470Z,26.32
2022-09-13T11:03:52.815Z,25.83
2022-09-13T11:06:29.695Z,25.82
2022-09-13T11:09:05.256Z,25.66
2022-09-13T11:11:42.169Z,25.42
2022-09-13T11:14:22.947Z,25.38
2022-09-13T11:17:03.750Z,25.33
2022-09-13T11:20:01.491Z,25.64
2022-09-13T11:22:47.820Z,25.78
2022-09-13T11:25:30.997Z,25.59
2022-09-13T11:28:08.561Z,25.60
2022-09-13T11:30:43.333Z,25.64
2022-09-13T11:33:28.787Z,25.85
2022-09-13T11:36:14.513Z,26.02
2022-09-13T11:38:58.273Z,26.06
2022-09-13T11:41:35.416Z,26.31
2022-09-13T11:44:47.553Z,26.52
2022-09-13T11:47:27.691Z,27.20
2022-09-13T11:50:21.010Z,27.88
2022-09-13T11:53:00.897Z,28.25
2022-09-13T11:55:33.904Z,28.88
2022-09-13T11:58:05.235Z,29.02
2022-09-13T12:00:40.500Z,29.00
2022-09-13T12:03:18.190Z,28.78
2022-09-13T12:05:50.203Z,28.63
2022-09-13T12:08:21.400Z,28.75
2022-09-13T12:10:54.229Z,29.10
2022-09-13T12:13:26.264Z,29.32
2022-09-13T12:15:57.135Z,29.13
2022-09-13T12:18:30.302Z,29.28
2022-09-13T12:21:01.995Z,29.52
2022-09-13T12:23:34.619Z,29.73
2022-09-13T12:26:07.661Z,29.82
2022-09-13T12:28:40.934Z,30.01
2022-09-13T12:31:12.389Z,30.01
2022-09-13T12:33:42.223Z,30.25
2022-09-13T12:36:41.144Z,30.17
2022-09-13T12:39:28.890Z,30.07
2022-09-13T12:42:23.063Z,30.08
2022-09-13T12:45:16.446Z,29.79
2022-09-13T12:48:19.120Z,29.63
2022-09-13T12:50:58.737Z,29.68
2022-09-13T12:53:48.091Z,29.77
2022-09-13T12:56:34.138Z,29.70
2022-09-13T12:59:35.847Z,29.71
2022-09-13T13:02:24.505Z,29.73
2022-09-13T13:04:57.182Z,29.70
2022-09-13T13:07:25.929Z,29.59
2022-09-13T13:09:58.653Z,29.52
2022-09-13T13:12:32.857Z,29.69
2022-09-13T13:15:02.341Z,29.68
2022-09-13T13:17:46.333Z,29.26
2022-09-13T13:20:48.229Z,29.18
2022-09-13T13:23:23.451Z,29.01
2022-09-13T13:26:39.439Z,29.00
2022-09-13T13:29:19.398Z,29.16
2022-09-13T13:32:10.067Z,29.26
2022-09-13T13:34:42.209Z,29.41
2022-09-13T13:37:38.077Z,29.17
2022-09-13T13:40:26.378Z,29.23
2022-09-13T13:43:16.532Z,28.83
2022-09-13T13:46:14.301Z,29.15
2022-09-13T13:48:43.389Z,28.86
2022-09-13T13:51:24.554Z,29.01
2022-09-13T13:53:57.066Z,29.02
2022-09-13T13:56:34.832Z,29.12
2022-09-13T13:59:07.601Z,29.03
2022-09-13T14:01:45.275Z,29.00
2022-09-13T14:04:43.088Z,28.81
2022-09-13T14:07:38.288Z,28.48
2022-09-13T14:10:12.272Z,28.59
2022-09-13T14:12:56.968Z,28.62
2022-09-13T14:15:48.633Z,28.60
2022-09-13T14:18:56.422Z,28.33
2022-09-13T14:21:29.407Z,28.11
2022-09-13T14:24:18.978Z,27.91
2022-09-13T14:26:48.705Z,27.83
2022-09-13T14:29:19.822Z,27.65
2022-09-13T14:31:48.918Z,27.51
2022-09-13T14:34:24.550Z,27.43
2022-09-13T14:36:56.468Z,27.33
2022-09-13T14:39:24.907Z,27.17
2022-09-13T14:42:01.401Z,27.13
2022-09-13T14:44:30.217Z,27.03
2022-09-13T14:47:08.314Z,26.98
2022-09-13T14:49:40.713Z,26.99
2022-09-13T14:52:16.139Z,26.91
2022-09-13T14:54:48.545Z,26.84
2022-09-13T14:57:23.952Z,26.76
2022-09-13T14:59:55.648Z,26.70
2022-09-13T15:02:26.393Z,26.60
2022-09-13T15:04:56.630Z,26.47
2022-09-13T15:07:33.194Z,26.39
2022-09-13T15:10:09.456Z,26.32
2022-09-13T15:12:37.558Z,26.27
2022-09-13T15:15:36.047Z,26.18
2022-09-13T15:18:07.519Z,26.03
2022-09-13T15:20:51.623Z,25.89
2022-09-13T15:23:26.042Z,25.82
2022-09-13T15:25:56.050Z,25.80
2022-09-13T15:28:29.150Z,25.80
2022-09-13T15:30:59.049Z,25.79
2022-09-13T15:33:29.356Z,25.80
2022-09-13T15:36:31.927Z,25.77
2022-09-13T15:39:03.511Z,25.66
2022-09-13T15:41:33.978Z,25.54
2022-09-13T15:44:03.044Z,25.51
2022-09-13T15:46:31.684Z,25.40
2022-09-13T15:49:03.848Z,25.31
2022-09-13T15:51:38.163Z,25.23
2022-09-13T15:54:12.987Z,25.08
2022-09-13T15:56:44.302Z,25.02
2022-09-13T15:59:14.584Z,24.96
2022-09-13T16:01:42.453Z,24.87
2022-09-13T16:04:10.423Z,24.79
2022-09-13T16:06:38.526Z,24.71
2022-09-13T16:09:17.104Z,24.65
2022-09-13T16:11:44.843Z,24.59
2022-09-13T16:14:12.537Z,24.59
2022-09-13T16:16:40.545Z,24.55
2022-09-13T16:19:14.392Z,24.50
2022-09-13T16:21:42.218Z,24.42
2022-09-13T16:24:11.500Z,24.36
2022-09-13T16:26:40.242Z,24.29
2022-09-13T16:29:08.267Z,24.13
2022-09-13T16:31:36.158Z,24.02
2022-09-13T16:34:03.942Z,23.91
2022-09-13T16:36:33.924Z,23.78
2022-09-13T16:39:01.751Z,23.68
2022-09-13T16:41:30.806Z,23.55
2022-09-13T16:43:58.543Z,23.43
2022-09-13T16:46:26.906Z,23.39
2022-09-13T16:48:55.476Z,23.25
2022-09-13T16:51:24.034Z,23.14
2022-09-13T16:53:53.426Z,23.03
2022-09-13T16:56:24.160Z,22.90
2022-09-13T16:58:53.833Z,22.66
2022-09-13T17:01:24.591Z,22.55
2022-09-13T17:03:54.982Z,22.41
2022-09-13T17:06:24.848Z,22.37
2022-09-13T17:08:55.312Z,22.27
2022-09-13T17:11:25.867Z,22.19
2022-09-13T17:13:55.999Z,22.16
2022-09-13T17:16:27.346Z,22.06
2022-09-13T17:18:57.149Z,21.98
2022-09-13T17:21:25.576Z,21.95
2022-09-13T17:23:53.701Z,21.91
2022-09-13T17:26:21.507Z,21.84
2022-09-13T17:28:49.707Z,21.82
2022-09-13T17:31:21.862Z,21.76
2022-09-13T17:33:50.285Z,21.70
2022-09-13T17:36:21.053Z,21.54
2022-09-13T17:38:49.123Z,21.39
2022-09-13T17:41:19.036Z,21.27
2022-09-13T17:43:48.100Z,21.22
2022-09-13T17:46:18.692Z,21.14
2022-09-13T17:48:46.623Z,21.08
2022-09-13T17:51:16.646Z,20.97
2022-09-13T17:53:46.317Z,21.00
2022-09-13T17:56:18.696Z,20.87
2022-09-13T17:58:46.679Z,20.78
2022-09-13T18:01:14.809Z,20.64
2022-09-13T18:03:44.142Z,20.57
2022-09-13T18:06:14.364Z,20.49
2022-09-13T18:08:42.840Z,20.45
2022-09-13T18:11:13.922Z,20.43
2022-09-13T18:13:42.993Z,20.32
2022-09-13T18:16:16.101Z,20.20
2022-09-13T18:18:50.342Z,20.13
2022-09-13T18:21:19.727Z,20.11
2022-09-13T18:23:48.728Z,20.08
2022-09-13T18:26:18.567Z,20.08
2022-09-13T18:28:47.201Z,20.04
2022-09-13T18:31:17.241Z,20.01
2022-09-13T18:33:46.127Z,19.92
2022-09-13T18:36:17.044Z,19.86
2022-09-13T18:38:46.287Z,19.86
2022-09-13T18:41:15.836Z,19.80
2022-09-13T18:43:45.858Z,19.75
2022-09-13T18:46:16.064Z,19.69
2022-09-13T18:48:45.297Z,19.61
2022-09-13T18:51:16.341Z,19.58
2022-09-13T18:53:44.669Z,19.58
2022-09-13T18:56:13.943Z,19.55
2022-09-13T18:58:43.239Z,19.45
2022-09-13T19:01:12.703Z,19.40
2022-09-13T19:03:41.832Z,19.38
2022-09-13T19:06:11.406Z,19.35
2022-09-13T19:08:40.946Z,19.32
2022-09-13T19:11:19.327Z,19.28
2022-09-13T19:13:58.383Z,19.27
2022-09-13T19:16:26.382Z,19.26
2022-09-13T19:18:56.283Z,19.18
2022-09-13T19:21:25.969Z,19.16
2022-09-13T19:23:59.922Z,19.14
2022-09-13T19:26:31.889Z,19.13
2022-09-13T19:29:04.473Z,19.04
2022-09-13T19:31:33.726Z,19.03
2022-09-13T19:34:02.981Z,18.93
2022-09-13T19:36:34.216Z,18.89
2022-09-13T19:39:05.990Z,18.87
2022-09-13T19:41:33.969Z,18.88
2022-09-13T19:44:03.742Z,18.73
2022-09-13T19:46:33.915Z,18.52
2022-09-13T19:49:02.870Z,18.51
2022-09-13T19:51:32.431Z,18.54
2022-09-13T19:54:01.529Z,18.45
2022-09-13T19:56:33.072Z,18.35
2022-09-13T19:59:02.407Z,18.35
2022-09-13T20:01:33.441Z,18.28
2022-09-13T20:04:03.117Z,18.22
2022-09-13T20:06:35.726Z,18.12
2022-09-13T20:09:04.080Z,18.13
2022-09-13T20:11:36.636Z,18.06
2022-09-13T20:14:07.562Z,18.05
2022-09-13T20:16:37.817Z,17.99
2022-09-13T20:19:29.673Z,18.03
2022-09-13T20:21:55.757Z,17.99
2022-09-13T20:24:23.865Z,18.05
2022-09-13T20:26:52.951Z,18.03
2022-09-13T20:29:20.675Z,18.02
2022-09-13T20:31:48.411Z,17.99
2022-09-13T20:34:16.612Z,18.02
2022-09-13T20:36:47.136Z,18.04
2022-09-13T20:39:16.224Z,18.07
2022-09-13T20:41:44.442Z,18.07
2022-09-13T20:44:13.646Z,18.10
2022-09-13T20:46:42.779Z,18.09
2022-09-13T20:49:11.651Z,18.10
2022-09-13T20:51:39.854Z,18.13
2022-09-13T20:54:08.260Z,18.17
2022-09-13T20:56:36.721Z,18.19
2022-09-13T20:59:05.715Z,18.22
2022-09-13T21:01:35.190Z,18.19
2022-09-13T21:04:03.867Z,18.12
2022-09-13T21:06:33.153Z,18.13
2022-09-13T21:09:00.288Z,18.11
2022-09-13T21:11:32.774Z,18.09
2022-09-13T21:14:02.977Z,18.09
2022-09-13T21:16:35.547Z,18.07
2022-09-13T21:19:03.346Z,18.06
2022-09-13T21:21:32.406Z,18.08
2022-09-13T21:24:02.127Z,18.08
2022-09-13T21:26:30.135Z,18.13
2022-09-13T21:29:00.264Z,18.16
2022-09-13T21:31:30.241Z,18.14
2022-09-13T21:34:00.864Z,18.12
2022-09-13T21:36:29.773Z,18.21
2022-09-13T21:38:57.836Z,18.19
2022-09-13T21:41:27.341Z,18.16
2022-09-13T21:43:55.419Z,18.18
2022-09-13T21:46:25.464Z,18.19
2022-09-13T21:48:55.528Z,18.21
2022-09-13T21:51:26.236Z,18.21
2022-09-13T21:53:58.754Z,18.23
2022-09-13T21:56:29.063Z,18.21
2022-09-13T21:58:59.209Z,18.19
2022-09-13T22:01:28.954Z,18.16
2022-09-13T22:03:57.887Z,18.13
2022-09-13T22:06:32.627Z,18.11
2022-09-13T22:09:03.388Z,18.16
2022-09-13T22:11:33.181Z,18.19
2022-09-13T22:14:02.306Z,18.22
2022-09-13T22:16:31.925Z,18.23
2022-09-13T22:19:06.706Z,18.21
2022-09-13T22:21:39.895Z,18.23
2022-09-13T22:24:09.690Z,18.21
2022-09-13T22:26:39.595Z,18.23
2022-09-13T22:29:08.699Z,18.26
2022-09-13T22:31:38.867Z,18.29
2022-09-13T22:34:07.815Z,18.28
2022-09-13T22:36:35.682Z,18.28
2022-09-13T22:39:05.347Z,18.27
2022-09-13T22:41:34.739Z,18.25
2022-09-13T22:44:03.449Z,18.25
2022-09-13T22:46:32.890Z,18.21
2022-09-13T22:49:01.617Z,18.18
2022-09-13T22:51:29.688Z,18.17
2022-09-13T22:53:58.319Z,18.13
2022-09-13T22:56:29.155Z,18.13
2022-09-13T22:58:58.492Z,18.10
2022-09-13T23:01:27.241Z,18.05
2022-09-13T23:03:55.350Z,18.01
2022-09-13T23:06:24.590Z,18.02
2022-09-13T23:08:53.896Z,17.99
2022-09-13T23:11:22.892Z,17.96
2022-09-13T23:13:54.064Z,17.94
2022-09-13T23:16:23.969Z,17.94
2022-09-13T23:18:52.971Z,18.00
2022-09-13T23:21:22.382Z,17.97
2022-09-13T23:23:50.499Z,17.93
2022-09-13T23:26:20.384Z,17.94
2022-09-13T23:28:52.199Z,17.93
2022-09-13T23:31:23.025Z,17.94
2022-09-13T23:33:53.404Z,17.96
2022-09-13T23:36:23.273Z,17.97
2022-09-13T23:38:52.702Z,17.93
2022-09-13T23:41:21.077Z,17.95
2022-09-13T23:43:49.492Z,17.93
2022-09-13T23:46:17.646Z,17.95
2022-09-13T23:48:47.051Z,17.94
2022-09-13T23:51:18.813Z,17.92
2022-09-13T23:53:47.252Z,17.87
2022-09-13T23:56:16.718Z,17.88
2022-09-13T23:58:44.695Z,17.88
